Terminal Aerodrome Forecast
Issued by NWS

Home | Current Version | Previous Version | Text Only | Print | Product List | Glossary On
Versions: 1 2 3 4 5 6 7 8 9 10 11 12 13 14 15 16
000
FTUS45 KRIW 220538
TAFBPI
TAF
KBPI 220538Z 2206/2306 VRB04KT P6SM VCFG SCT005 BKN025
      WS020/28025KT
     FM221000 VRB04KT 1/2SM -FZDZ FZFG VV002 WS020/28025KT
     FM221600 34007KT 5SM BR SCT009 BKN015 OVC150
     FM221900 34008KT P6SM SCT020 BKN150
     FM230400 35005KT P6SM VCFG SCT005 BKN200=

USA.gov is the U.S. government's official web portal to all federal, state and local government web resources and services.